• Join FlightAware (Why Join?)
  • Login
  • US Flag 
12:26PM EDT


 

Airport Tracker/Info


-or-


 

Live Flight TrackerFlight Track Log ✈ AWE3418 ✈ 30-Mar-2014 ✈ KCMH - KPHL

Flight Track Log - Related Links

Times and Time Zones

All times are in EDT time to prevent confusion due to time zone crossing. See the AWE3418 flight status page for this flight to view local times or setup timezone preferences in your user account.

Time Position Orientation Groundspeed Altitude Reporting Facility
EDT Latitude Longitude Course Direction KTS MPH feet Rate Location/Type
05:35PM 40.0031 -82.9211 82° East 167 192 1,600  Level Indianapolis Center
05:36PM 40.0050 -82.9856 272° West 181 208 3,300 1,980 Climbing Indianapolis Center
05:37PM 39.9411 -83.0306 208° Southwest 251 289 6,200 2,820 Climbing Indianapolis Center
05:38PM 40.0473 -82.3943 83° East  Level FlightAware Approximate
05:38PM 39.8750 -82.9753 147° Southeast 287 330 9,200  Level Indianapolis Center
05:39PM 40.0647 -82.2718 79° East  Level FlightAware Approximate
05:39PM 39.8600 -82.8650 100° East 301 346 11,100  Level Indianapolis Center
05:40PM 40.0834 -82.1495 82° East  Level FlightAware Approximate
05:40PM 39.8794 -82.7461 78° East 335 386 13,500  Level Indianapolis Center
05:41PM 39.9042 -82.6219 75° East 352 405 15,700 1,980 Climbing Indianapolis Center
05:42PM 39.9267 -82.4917 77° East 364 419 17,700 2,100 Climbing Indianapolis Center
05:43PM 39.9561 -82.3306 77° East 375 432 20,100 1,980 Climbing Indianapolis Center
05:44PM 39.9819 -82.1914 76° East 391 450 21,900 1,620 Climbing Indianapolis Center
05:45PM 40.0075 -82.0461 77° East 406 467 23,500 1,500 Climbing Indianapolis Center
05:46PM 40.0331 -81.9000 77° East 409 471 25,100 1,500 Climbing Indianapolis Center
05:47PM 40.0611 -81.7433 77° East 421 484 26,600 1,200 Climbing Indianapolis Center
05:48PM 40.0889 -81.5906 77° East 425 489 27,700 1,080 Climbing Indianapolis Center
05:50PM 40.1153 -81.4325 78° East 438 504 28,900 1,560 Climbing Indianapolis Center
05:51PM 40.1383 -81.2492 81° East 440 506 31,000 960 Climbing Indianapolis Center
05:52PM 40.1500 -81.0956 84° East 430 495 31,000  Level Indianapolis Center
05:53PM 40.1633 -80.9369 84° East 431 496 31,000  Level Indianapolis Center
05:54PM 40.1753 -80.7775 84° East 435 501 31,000  Level Indianapolis Center
05:55PM 40.1897 -80.6169 83° East 436 502 31,000  Level Indianapolis Center
05:56PM 40.2022 -80.4569 84° East 437 503 31,000  Level Indianapolis Center
05:57PM 40.2150 -80.2725 85° East 437 503 31,000  Level Indianapolis Center
05:58PM 40.2278 -80.1125 84° East 437 503 31,000  Level Indianapolis Center
05:59PM 40.2417 -79.9294 84° East 437 503 31,000  Level Cleveland Center
06:00PM 40.2519 -79.7736 85° East 437 503 31,000  Level Cleveland Center
06:01PM 40.2639 -79.6167 84° East 437 503 31,000 -60 Level Cleveland Center
06:02PM 40.2747 -79.4589 85° East 437 503 30,900 -900 Descending Cleveland Center
06:03PM 40.2869 -79.2803 85° East 430 495 29,200 -960 Descending Cleveland Center
06:04PM 40.2964 -79.1244 85° East 430 495 29,000 -780 Descending Cleveland Center
06:05PM 40.3075 -78.9711 85° East 429 494 27,600 -1,020 Descending Cleveland Center
06:06PM 40.3167 -78.8206 85° East 424 488 27,000 -300 Descending Cleveland Center
06:07PM 40.3167 -78.6381 90° East 420 483 27,000  Level Cleveland Center
06:08PM 40.3161 -78.4900 90° East 417 480 27,000 -960 Level Cleveland Center
06:09PM 40.3164 -78.3514 90° East 391 450 25,100 -1,500 Descending Cleveland Center
06:10PM 40.3150 -78.2103 91° East 388 447 24,000 -540 Descending Cleveland Center
06:11PM 40.3142 -78.0589 90° East 414 476 24,000  Level Cleveland Center
06:12PM 40.3122 -77.8794 91° East 416 479 24,000  Level Cleveland Center
06:13PM 40.3108 -77.7642 91° East 415 478 24,000 -240 Level New York Center
06:14PM 40.3089 -77.6197 91° East 410 472 23,600 -1,500 Descending New York Center
06:15PM 40.3067 -77.4750 91° East 405 466 21,000 -2,340 Descending New York Center
06:16PM 40.3039 -77.3358 91° East 399 459 19,000 -1,020 Descending New York Center
06:17PM 40.3025 -77.2106 91° East 386 444 19,000  Level New York Center
06:18PM 40.2981 -77.0631 92° East 375 432 19,000  Level New York Center
06:19PM 40.2658 -76.9242 107° East 375 432 19,000 -360 Level New York Center
06:20PM 40.2353 -76.7856 106° East 391 450 18,300 -1,200 Descending New York Center
06:21PM 40.2081 -76.6661 107° East 391 450 16,700 -1,500 Descending New York Center
06:22PM 40.1789 -76.5361 106° East 386 444 15,400 -1,500 Descending New York Center
06:23PM 40.1458 -76.4003 108° East 365 420 13,800 -1,440 Descending New York Center
06:24PM 40.1203 -76.2814 106° East 350 403 12,600 -1,200 Descending New York Center
06:25PM 40.1111 -76.1611 96° East 344 396 11,400 -1,200 Descending New York Center
06:26PM 40.1053 -76.0658 95° East 305 351 10,300 -1,500 Descending New York Center
06:27PM 40.0975 -75.9592 95° East 274 315 8,500 -1,200 Descending New York Center
06:28PM 40.0889 -75.8636 97° East 269 310 8,000 -300 Descending New York Center
06:29PM 40.0828 -75.7683 95° East 269 310 8,000  Level New York Center
06:30PM 40.0764 -75.6728 95° East 264 304 8,000  Level New York Center
06:31PM 40.0719 -75.5722 93° East 264 304 8,000 -480 Level New York Center
06:32PM 40.0675 -75.4769 93° East 264 304 7,100 -1,020 Descending New York Center
06:33PM 40.0631 -75.3817 93° East 264 304 6,000 -600 Descending New York Center
06:34PM 40.0667 -75.3000 87° East 268 308 6,000  Level Philadelphia TRACON
06:35PM 40.0500 -75.2000 102° East 271 312 6,000 -240 Level Philadelphia TRACON
06:36PM 40.0167 -75.1000 113° Southeast 250 288 5,600 -1,020 Descending Philadelphia TRACON
06:37PM 40.0000 -75.0500 114° Southeast 249 287 4,200 -2,100 Descending Philadelphia TRACON
06:38PM 39.9167 -75.0167 163° South 289 333 2,100 -1,020 Descending Philadelphia TRACON
06:39PM 39.9000 -75.0833 252° West 143 165 2,100 -300 Level Philadelphia TRACON
06:40PM 39.9000 -75.1333 270° West 149 171 1,500 -720 Descending Philadelphia TRACON
06:41PM 39.8833 -75.1833 247° West 139 160 700 -780 Descending Philadelphia TRACON